createdAt,value
2023-12-23T00:00:53.710Z,2.03
2023-12-23T00:03:57.088Z,1.45
2023-12-23T00:06:59.142Z,1.43
2023-12-23T00:10:01.188Z,1.08
2023-12-23T00:13:03.318Z,1.00
2023-12-23T00:16:05.408Z,2.08
2023-12-23T00:19:07.973Z,1.63
2023-12-23T00:22:10.120Z,1.58
2023-12-23T00:25:12.212Z,1.60
2023-12-23T00:28:14.346Z,1.03
2023-12-23T00:31:16.442Z,1.58
2023-12-23T00:34:18.551Z,1.58
2023-12-23T00:37:20.719Z,1.50
2023-12-23T00:40:23.064Z,1.30
2023-12-23T00:43:25.112Z,1.95
2023-12-23T00:46:29.396Z,1.45
2023-12-23T00:49:31.502Z,1.45
2023-12-23T00:52:33.812Z,1.15
2023-12-23T00:55:36.719Z,1.70
2023-12-23T00:58:40.486Z,0.80
2023-12-23T01:01:45.508Z,1.20
2023-12-23T01:04:47.647Z,1.33
2023-12-23T01:07:50.031Z,1.33
2023-12-23T01:10:52.356Z,1.60
2023-12-23T01:13:54.474Z,1.75
2023-12-23T01:16:56.592Z,1.52
2023-12-23T01:19:58.786Z,1.65
2023-12-23T01:23:00.899Z,1.30
2023-12-23T01:26:03.179Z,1.40
2023-12-23T01:29:06.455Z,0.97
2023-12-23T01:32:08.594Z,1.58
2023-12-23T01:35:10.859Z,0.93
2023-12-23T01:38:13.052Z,1.20
2023-12-23T01:41:15.393Z,1.13
2023-12-23T01:44:17.634Z,1.35
2023-12-23T01:47:20.337Z,1.33
2023-12-23T01:50:24.244Z,1.90
2023-12-23T01:53:26.715Z,1.80
2023-12-23T01:56:29.870Z,1.98
2023-12-23T01:59:32.058Z,1.70
2023-12-23T02:02:39.658Z,1.70
2023-12-23T02:05:42.026Z,1.02
2023-12-23T02:08:44.206Z,1.40
2023-12-23T02:11:49.084Z,1.27
2023-12-23T02:15:04.462Z,0.80
2023-12-23T02:18:07.418Z,1.95
2023-12-23T02:21:10.126Z,1.17
2023-12-23T02:24:12.207Z,1.90
2023-12-23T02:27:15.745Z,0.70
2023-12-23T02:30:18.317Z,0.60
2023-12-23T02:33:20.545Z,0.65
2023-12-23T02:36:23.406Z,1.20
2023-12-23T02:39:25.423Z,1.07
2023-12-23T02:42:27.495Z,0.93
2023-12-23T02:45:29.533Z,1.83
2023-12-23T02:48:31.595Z,1.52
2023-12-23T02:51:34.286Z,1.55
2023-12-23T02:54:37.498Z,1.35
2023-12-23T02:57:39.616Z,1.20
2023-12-23T03:00:41.711Z,0.90
2023-12-23T03:03:43.805Z,1.15
2023-12-23T03:06:45.917Z,1.73
2023-12-23T03:09:49.142Z,2.17
2023-12-23T03:12:51.355Z,1.73
2023-12-23T03:15:53.626Z,1.80
2023-12-23T03:18:55.802Z,1.70
2023-12-23T03:21:57.850Z,2.08
2023-12-23T03:24:59.911Z,1.98
2023-12-23T03:28:02.018Z,1.95
2023-12-23T03:31:04.705Z,1.10
2023-12-23T03:34:06.895Z,2.60
2023-12-23T03:37:09.873Z,1.80
2023-12-23T03:40:12.248Z,1.50
2023-12-23T03:43:14.289Z,1.88
2023-12-23T03:46:18.654Z,2.35
2023-12-23T03:49:20.720Z,2.13
2023-12-23T03:52:23.746Z,1.20
2023-12-23T03:55:30.464Z,2.53
2023-12-23T03:58:32.586Z,2.65
2023-12-23T04:01:34.680Z,1.67
2023-12-23T04:04:40.524Z,1.98
2023-12-23T04:07:42.825Z,2.05
2023-12-23T04:10:45.026Z,2.60
2023-12-23T04:13:47.151Z,1.75
2023-12-23T04:16:49.240Z,2.50
2023-12-23T04:19:51.754Z,2.78
2023-12-23T04:22:54.370Z,2.42
2023-12-23T04:25:56.741Z,3.03
2023-12-23T04:28:59.679Z,2.25
2023-12-23T04:32:02.418Z,1.40
2023-12-23T04:35:04.782Z,1.80
2023-12-23T04:38:08.123Z,1.98
2023-12-23T04:41:10.338Z,1.73
2023-12-23T04:44:15.838Z,2.20
2023-12-23T04:47:17.985Z,2.90
2023-12-23T04:50:20.173Z,2.55
2023-12-23T04:53:23.546Z,1.65
2023-12-23T04:56:25.813Z,1.63
2023-12-23T04:59:28.969Z,1.50
2023-12-23T05:02:31.193Z,0.70
2023-12-23T05:05:33.340Z,0.88
2023-12-23T05:08:35.550Z,1.50
2023-12-23T05:11:37.641Z,1.73
2023-12-23T05:14:39.703Z,1.30
2023-12-23T05:17:42.291Z,0.93
2023-12-23T05:20:44.496Z,0.80
2023-12-23T05:23:46.583Z,1.85
2023-12-23T05:26:49.472Z,1.85
2023-12-23T05:29:52.280Z,1.80
2023-12-23T05:32:54.600Z,0.70
2023-12-23T05:35:56.924Z,1.52
2023-12-23T05:38:59.128Z,0.60
2023-12-23T05:42:01.280Z,1.33
2023-12-23T05:45:03.513Z,1.10
2023-12-23T05:48:06.114Z,0.88
2023-12-23T05:51:08.680Z,1.35
2023-12-23T05:54:10.719Z,1.40
2023-12-23T05:57:12.795Z,1.80
2023-12-23T06:00:15.173Z,1.25
2023-12-23T06:03:17.312Z,0.63
2023-12-23T06:06:19.549Z,1.08
2023-12-23T06:09:21.723Z,0.45
2023-12-23T06:12:24.930Z,1.50
2023-12-23T06:15:27.245Z,1.02
2023-12-23T06:18:29.330Z,1.45
2023-12-23T06:21:31.416Z,1.33
2023-12-23T06:24:33.602Z,1.55
2023-12-23T06:27:35.751Z,1.65
2023-12-23T06:30:38.203Z,1.13
2023-12-23T06:33:40.360Z,0.83
2023-12-23T06:36:42.552Z,0.90
2023-12-23T06:39:44.930Z,0.98
2023-12-23T06:42:46.986Z,1.40
2023-12-23T06:45:49.146Z,0.82
2023-12-23T06:48:52.269Z,1.70
2023-12-23T06:51:54.838Z,1.60
2023-12-23T06:54:56.921Z,1.10
2023-12-23T06:57:59.049Z,1.23
2023-12-23T07:01:01.142Z,2.08
2023-12-23T07:04:03.347Z,1.43
2023-12-23T07:07:05.489Z,0.40
2023-12-23T07:10:08.177Z,0.90
2023-12-23T07:13:10.297Z,1.97
2023-12-23T07:16:12.367Z,0.80
2023-12-23T07:19:15.655Z,1.75
2023-12-23T07:22:17.724Z,1.15
2023-12-23T07:25:19.816Z,0.88
2023-12-23T07:28:21.881Z,1.10
2023-12-23T07:31:23.916Z,2.08
2023-12-23T07:34:25.991Z,1.60
2023-12-23T07:37:28.120Z,1.73
2023-12-23T07:40:31.564Z,1.73
2023-12-23T07:43:34.540Z,0.90
2023-12-23T07:46:36.608Z,1.45
2023-12-23T07:49:39.368Z,1.70
2023-12-23T07:52:41.765Z,1.73
2023-12-23T07:55:43.887Z,2.30
2023-12-23T07:58:45.979Z,1.80
2023-12-23T08:01:48.137Z,2.38
2023-12-23T08:04:50.454Z,1.63
2023-12-23T08:07:52.665Z,1.95
2023-12-23T08:10:55.696Z,1.52
2023-12-23T08:13:57.860Z,1.77
2023-12-23T08:16:59.967Z,1.80
2023-12-23T08:20:02.309Z,2.65
2023-12-23T08:23:04.896Z,2.72
2023-12-23T08:26:07.383Z,1.67
2023-12-23T08:29:09.573Z,2.13
2023-12-23T08:32:11.767Z,2.60
2023-12-23T08:35:14.002Z,2.10
2023-12-23T08:38:16.112Z,1.88
2023-12-23T08:41:18.404Z,2.08
2023-12-23T08:44:22.642Z,2.17
2023-12-23T08:47:24.868Z,2.13
2023-12-23T08:50:27.057Z,1.95
2023-12-23T08:53:29.433Z,2.08
2023-12-23T08:56:31.604Z,2.88
2023-12-23T08:59:33.769Z,2.35
2023-12-23T09:02:35.914Z,2.28
2023-12-23T09:05:38.105Z,1.10
2023-12-23T09:08:40.490Z,2.22
2023-12-23T09:11:43.932Z,1.63
2023-12-23T09:14:46.615Z,2.93
2023-12-23T09:17:49.040Z,1.52
2023-12-23T09:20:51.255Z,3.20
2023-12-23T09:23:53.308Z,2.35
2023-12-23T09:26:55.310Z,2.65
2023-12-23T09:29:59.220Z,2.38
2023-12-23T09:33:01.443Z,2.45
2023-12-23T09:36:03.661Z,1.63
2023-12-23T09:39:05.810Z,2.78
2023-12-23T09:42:08.257Z,1.95
2023-12-23T09:45:14.008Z,2.73
2023-12-23T09:48:16.123Z,1.98
2023-12-23T09:51:18.662Z,2.22
2023-12-23T09:54:22.096Z,1.92
2023-12-23T09:57:24.999Z,2.30
2023-12-23T10:00:27.046Z,2.20
2023-12-23T10:03:30.150Z,1.77
2023-12-23T10:06:32.470Z,1.53
2023-12-23T10:09:34.928Z,3.30
2023-12-23T10:12:37.425Z,2.80
2023-12-23T10:15:42.306Z,3.03
2023-12-23T10:18:46.609Z,1.95
2023-12-23T10:21:52.097Z,2.17
2023-12-23T10:24:54.197Z,2.42
2023-12-23T10:27:58.491Z,1.65
2023-12-23T10:31:02.688Z,2.67
2023-12-23T10:34:08.374Z,2.42
2023-12-23T10:37:13.506Z,1.80
2023-12-23T10:40:19.036Z,1.40
2023-12-23T10:43:21.690Z,1.50
2023-12-23T10:46:24.964Z,2.83
2023-12-23T10:49:27.570Z,2.40
2023-12-23T10:52:29.795Z,1.70
2023-12-23T10:55:32.162Z,2.80
2023-12-23T10:58:36.007Z,2.90
2023-12-23T11:01:38.169Z,2.33
2023-12-23T11:04:43.084Z,2.22
2023-12-23T11:07:47.949Z,1.60
2023-12-23T11:10:50.401Z,2.75
2023-12-23T11:13:52.817Z,2.28
2023-12-23T11:16:58.175Z,2.13
2023-12-23T11:20:02.561Z,2.55
2023-12-23T11:23:23.448Z,1.77
2023-12-23T11:26:43.855Z,2.30
2023-12-23T11:29:45.989Z,2.03
2023-12-23T11:32:48.344Z,2.35
2023-12-23T11:36:01.558Z,2.03
2023-12-23T11:39:06.592Z,2.00
2023-12-23T11:42:09.011Z,3.20
2023-12-23T11:45:14.424Z,1.95
2023-12-23T11:48:16.706Z,2.63
2023-12-23T11:51:18.858Z,2.53
2023-12-23T11:54:20.999Z,2.45
2023-12-23T11:57:23.313Z,1.98
2023-12-23T12:00:25.405Z,3.00
2023-12-23T12:03:27.647Z,2.50
2023-12-23T12:06:29.850Z,2.05
2023-12-23T12:09:32.262Z,1.97
2023-12-23T12:12:34.358Z,1.85
2023-12-23T12:15:36.417Z,1.70
2023-12-23T12:18:40.661Z,2.50
2023-12-23T12:21:42.893Z,2.90
2023-12-23T12:24:45.038Z,3.72
2023-12-23T12:27:47.196Z,3.25
2023-12-23T12:30:49.284Z,2.45
2023-12-23T12:33:51.578Z,3.15
2023-12-23T12:36:53.911Z,3.15
2023-12-23T12:39:55.986Z,2.33
2023-12-23T12:42:58.020Z,2.97
2023-12-23T12:46:00.036Z,2.10
2023-12-23T12:49:02.119Z,3.33
2023-12-23T12:52:04.611Z,1.52
2023-12-23T12:55:07.134Z,1.88
2023-12-23T12:58:09.361Z,2.03
2023-12-23T13:01:11.513Z,2.50
2023-12-23T13:04:13.769Z,2.63
2023-12-23T13:07:15.901Z,1.77
2023-12-23T13:10:18.327Z,2.70
2023-12-23T13:13:20.523Z,3.22
2023-12-23T13:16:22.629Z,2.25
2023-12-23T13:19:24.817Z,2.37
2023-12-23T13:22:27.090Z,2.83
2023-12-23T13:25:29.199Z,3.28
2023-12-23T13:28:31.284Z,3.25
2023-12-23T13:31:33.374Z,2.60
2023-12-23T13:34:35.836Z,2.75
2023-12-23T13:37:37.997Z,1.52
2023-12-23T13:40:40.068Z,1.90
2023-12-23T13:43:42.292Z,2.95
2023-12-23T13:46:44.971Z,3.70
2023-12-23T13:49:47.436Z,3.27
2023-12-23T13:52:49.940Z,4.00
2023-12-23T13:55:52.198Z,5.10
2023-12-23T13:58:54.353Z,4.60
2023-12-23T14:01:56.440Z,4.00
2023-12-23T14:04:58.606Z,5.53
2023-12-23T14:08:00.773Z,4.03
2023-12-23T14:11:02.833Z,4.83
2023-12-23T14:14:06.210Z,5.50
2023-12-23T14:17:08.381Z,5.15
2023-12-23T14:20:10.598Z,5.10
2023-12-23T14:23:12.793Z,3.85
2023-12-23T14:26:14.967Z,6.20
2023-12-23T14:29:17.151Z,4.82
2023-12-23T14:32:19.319Z,4.35
2023-12-23T14:35:21.474Z,6.15
2023-12-23T14:38:23.628Z,4.65
2023-12-23T14:41:25.778Z,4.07
2023-12-23T14:44:27.899Z,4.10
2023-12-23T14:47:30.020Z,4.20
2023-12-23T14:50:32.233Z,4.03
2023-12-23T14:53:34.385Z,3.60
2023-12-23T14:56:36.622Z,1.80
2023-12-23T14:59:39.337Z,4.35
2023-12-23T15:02:41.494Z,3.85
2023-12-23T15:05:43.977Z,5.28
2023-12-23T15:08:46.139Z,4.38
2023-12-23T15:11:48.250Z,4.33
2023-12-23T15:14:51.828Z,4.85
2023-12-23T15:17:53.881Z,4.15
2023-12-23T15:20:55.941Z,4.13
2023-12-23T15:23:58.061Z,5.72
2023-12-23T15:27:00.134Z,4.65
2023-12-23T15:30:05.298Z,5.40
2023-12-23T15:33:07.433Z,4.70
2023-12-23T15:36:12.461Z,5.50
2023-12-23T15:39:14.547Z,3.72
2023-12-23T15:42:16.573Z,4.93
2023-12-23T15:45:18.662Z,5.65
2023-12-23T15:48:21.026Z,4.22
2023-12-23T15:51:23.169Z,5.67
2023-12-23T15:54:25.267Z,4.68
2023-12-23T15:57:28.512Z,4.00
2023-12-23T16:00:30.676Z,4.80
2023-12-23T16:03:32.881Z,4.07
2023-12-23T16:06:35.075Z,4.63
2023-12-23T16:09:37.531Z,4.68
2023-12-23T16:12:39.712Z,3.83
2023-12-23T16:15:42.970Z,5.32
2023-12-23T16:18:45.646Z,5.32
2023-12-23T16:21:47.904Z,6.10
2023-12-23T16:24:49.992Z,5.28
2023-12-23T16:27:52.114Z,5.13
2023-12-23T16:30:54.188Z,7.13
2023-12-23T16:33:56.397Z,4.93
2023-12-23T16:36:58.506Z,5.93
2023-12-23T16:40:00.638Z,8.18
2023-12-23T16:43:02.918Z,6.70
2023-12-23T16:46:06.388Z,4.43
2023-12-23T16:49:08.487Z,6.78
2023-12-23T16:52:10.673Z,6.70
2023-12-23T16:55:12.883Z,11.50
2023-12-23T16:58:15.285Z,11.43
2023-12-23T17:01:17.660Z,7.88
2023-12-23T17:04:19.742Z,5.60
2023-12-23T17:07:21.837Z,6.20
2023-12-23T17:10:23.912Z,8.57
2023-12-23T17:13:26.389Z,8.20
2023-12-23T17:16:28.455Z,10.30
2023-12-23T17:19:30.534Z,14.95
2023-12-23T17:22:32.594Z,12.27
2023-12-23T17:25:34.609Z,14.50
2023-12-23T17:28:36.696Z,14.80
2023-12-23T17:31:38.808Z,18.50
2023-12-23T17:34:40.912Z,34.67
2023-12-23T17:37:43.018Z,65.78
2023-12-23T17:40:45.955Z,43.10
2023-12-23T17:43:48.165Z,33.97
2023-12-23T17:46:50.329Z,28.40
2023-12-23T17:49:52.811Z,27.77
2023-12-23T17:52:55.153Z,35.90
2023-12-23T17:55:57.457Z,37.05
2023-12-23T17:58:59.556Z,26.88
2023-12-23T18:02:01.697Z,36.33
2023-12-23T18:05:04.087Z,31.85
2023-12-23T18:08:06.506Z,28.23
2023-12-23T18:11:08.684Z,26.13
2023-12-23T18:14:10.892Z,21.53
2023-12-23T18:17:13.194Z,19.40
2023-12-23T18:20:15.826Z,16.23
2023-12-23T18:23:18.141Z,17.97
2023-12-23T18:26:20.380Z,14.82
2023-12-23T18:29:22.545Z,13.88
2023-12-23T18:32:24.754Z,14.85
2023-12-23T18:35:27.086Z,33.08
2023-12-23T18:38:29.270Z,26.90
2023-12-23T18:41:31.423Z,28.27
2023-12-23T18:44:33.613Z,30.90
2023-12-23T18:47:35.864Z,30.52
2023-12-23T18:50:38.017Z,28.13
2023-12-23T18:53:40.324Z,30.93
2023-12-23T18:56:42.365Z,25.17
2023-12-23T18:59:44.464Z,21.50
2023-12-23T19:02:46.524Z,14.95
2023-12-23T19:05:48.657Z,11.20
2023-12-23T19:08:51.020Z,15.07
2023-12-23T19:11:53.430Z,14.05
2023-12-23T19:14:55.451Z,8.53
2023-12-23T19:17:57.820Z,9.43
2023-12-23T19:21:00.008Z,9.55
2023-12-23T19:24:02.063Z,7.77
2023-12-23T19:27:04.423Z,7.13
2023-12-23T19:30:06.873Z,10.65
2023-12-23T19:33:10.397Z,9.13
2023-12-23T19:36:15.602Z,9.80
2023-12-23T19:39:19.574Z,6.75
2023-12-23T19:42:21.598Z,5.57
2023-12-23T19:45:23.811Z,6.37
2023-12-23T19:48:25.905Z,7.72
2023-12-23T19:51:29.109Z,5.90
2023-12-23T19:54:31.145Z,8.13
2023-12-23T19:57:33.397Z,10.57
2023-12-23T20:00:35.466Z,7.78
2023-12-23T20:03:41.365Z,8.40
2023-12-23T20:06:43.612Z,11.23
2023-12-23T20:09:45.692Z,12.35
2023-12-23T20:12:47.781Z,14.57
2023-12-23T20:15:49.899Z,7.60
2023-12-23T20:18:52.761Z,10.23
2023-12-23T20:21:54.927Z,7.47
2023-12-23T20:24:57.022Z,10.70
2023-12-23T20:27:59.067Z,8.15
2023-12-23T20:31:01.143Z,8.57
2023-12-23T20:34:06.608Z,7.45
2023-12-23T20:37:09.860Z,7.68
2023-12-23T20:40:12.239Z,7.35
2023-12-23T20:43:14.338Z,9.88
2023-12-23T20:46:16.405Z,7.83
2023-12-23T20:49:18.543Z,7.60
2023-12-23T20:52:20.624Z,7.60
2023-12-23T20:55:22.649Z,7.00
2023-12-23T20:58:24.701Z,6.40
2023-12-23T21:01:26.907Z,6.65
2023-12-23T21:04:29.502Z,6.03
2023-12-23T21:07:31.641Z,7.47
2023-12-23T21:10:37.164Z,8.38
2023-12-23T21:13:39.606Z,5.38
2023-12-23T21:16:42.589Z,8.10
2023-12-23T21:19:45.777Z,8.80
2023-12-23T21:22:47.999Z,9.27
2023-12-23T21:25:50.085Z,6.33
2023-12-23T21:28:53.292Z,8.73
2023-12-23T21:31:55.445Z,9.30
2023-12-23T21:34:57.554Z,8.70
2023-12-23T21:37:59.701Z,6.28
2023-12-23T21:41:01.860Z,8.07
2023-12-23T21:44:04.843Z,12.02
2023-12-23T21:47:07.011Z,6.00
2023-12-23T21:50:09.258Z,7.53
2023-12-23T21:53:13.821Z,6.88
2023-12-23T21:56:15.958Z,7.47
2023-12-23T21:59:18.181Z,7.32
2023-12-23T22:02:20.721Z,8.65
2023-12-23T22:05:23.422Z,8.02
2023-12-23T22:08:25.675Z,5.75
2023-12-23T22:11:27.781Z,7.85
2023-12-23T22:14:29.980Z,8.88
2023-12-23T22:17:32.247Z,10.00
2023-12-23T22:20:34.534Z,9.88
2023-12-23T22:23:36.764Z,8.10
2023-12-23T22:26:38.952Z,9.20
2023-12-23T22:29:41.073Z,9.98
2023-12-23T22:32:43.438Z,6.47
2023-12-23T22:35:47.630Z,9.30
2023-12-23T22:38:50.670Z,8.23
2023-12-23T22:41:52.750Z,6.53
2023-12-23T22:44:55.156Z,8.65
2023-12-23T22:47:57.289Z,7.83
2023-12-23T22:50:59.375Z,6.97
2023-12-23T22:54:02.241Z,7.15
2023-12-23T22:57:04.586Z,8.23
2023-12-23T23:00:21.806Z,8.18
2023-12-23T23:03:23.902Z,9.80
2023-12-23T23:06:26.079Z,6.90
2023-12-23T23:09:30.109Z,6.53
2023-12-23T23:12:33.011Z,6.75
2023-12-23T23:15:35.044Z,7.72
2023-12-23T23:18:37.288Z,7.17
2023-12-23T23:21:39.891Z,4.90
2023-12-23T23:24:41.985Z,7.95
2023-12-23T23:27:44.110Z,5.80
2023-12-23T23:30:46.293Z,7.47
2023-12-23T23:33:48.407Z,6.25
2023-12-23T23:36:50.456Z,4.93
2023-12-23T23:39:52.486Z,7.03
2023-12-23T23:42:54.736Z,5.05
2023-12-23T23:45:56.845Z,3.80
2023-12-23T23:48:58.871Z,4.00
2023-12-23T23:52:00.998Z,3.80
2023-12-23T23:55:03.481Z,4.72
2023-12-23T23:58:05.750Z,3.83
